Time;durP1;ratioP1;P1;durP2;ratioP2;P2;SDS_P1;SDS_P2;PMS_P1;PMS_P2;Temp;Humidity;BMP_temperature;BMP_pressure;BME280_temperature;BME280_humidity;BME280_pressure;Samples;Min_cycle;Max_cycle;Signal;HPM_P1;HPM_P2
2021/03/07 00:00:39;;;;;;;8.20;4.32;;;3.00;55.90;;;;;;5040893;28;20041;-74
2021/03/07 00:03:05;;;;;;;8.35;4.57;;;2.90;56.50;;;;;;5041709;28;20045;-74
2021/03/07 00:05:31;;;;;;;13.73;5.68;;;2.60;56.50;;;;;;5023973;28;20040;-75
2021/03/07 00:07:57;;;;;;;7.90;4.45;;;2.80;56.50;;;;;;5035980;28;20034;-74
2021/03/07 00:10:23;;;;;;;12.18;5.38;;;2.80;56.40;;;;;;5039734;28;20098;-74
2021/03/07 00:12:50;;;;;;;18.33;7.00;;;2.80;56.50;;;;;;5041018;28;20049;-75
2021/03/07 00:15:17;;;;;;;8.63;4.80;;;2.80;56.50;;;;;;5046735;28;20025;-77
2021/03/07 00:17:45;;;;;;;11.75;5.05;;;2.80;56.50;;;;;;5041604;28;20045;-75
2021/03/07 00:20:13;;;;;;;10.48;4.80;;;2.70;56.90;;;;;;5040713;28;20414;-76
2021/03/07 00:22:40;;;;;;;9.30;4.85;;;2.70;56.90;;;;;;5044262;28;20401;-75
2021/03/07 00:25:07;;;;;;;8.10;4.88;;;2.70;57.00;;;;;;5049776;28;20434;-75
2021/03/07 00:27:34;;;;;;;9.20;4.57;;;2.70;57.00;;;;;;5045483;28;20222;-76
2021/03/07 00:30:01;;;;;;;8.82;4.68;;;2.70;56.90;;;;;;5049092;28;20090;-76
2021/03/07 00:32:27;;;;;;;8.85;4.57;;;2.70;57.00;;;;;;5042743;28;20135;-76
2021/03/07 00:34:53;;;;;;;8.45;4.90;;;2.60;57.00;;;;;;5040059;28;20817;-76
2021/03/07 00:37:18;;;;;;;10.63;5.13;;;2.60;57.40;;;;;;5040380;28;20034;-75
2021/03/07 00:39:44;;;;;;;8.48;4.85;;;2.60;57.40;;;;;;5046189;28;20051;-75
2021/03/07 00:42:10;;;;;;;8.63;4.47;;;2.60;57.60;;;;;;5047037;28;20119;-74
2021/03/07 00:44:36;;;;;;;9.20;5.07;;;2.50;57.50;;;;;;5043946;28;20032;-76
2021/03/07 00:47:02;;;;;;;8.05;4.63;;;2.40;57.90;;;;;;5047147;28;20041;-74
2021/03/07 00:49:30;;;;;;;8.95;5.18;;;2.40;58.30;;;;;;5042931;28;20098;-76
2021/03/07 00:51:56;;;;;;;9.77;5.28;;;2.30;58.80;;;;;;5042960;28;20072;-75
2021/03/07 00:54:22;;;;;;;7.30;5.10;;;2.30;58.80;;;;;;5045834;28;20037;-75
2021/03/07 00:56:48;;;;;;;9.15;4.57;;;2.30;58.80;;;;;;5049459;28;20521;-76
2021/03/07 00:59:14;;;;;;;9.52;5.30;;;2.20;58.60;;;;;;5050698;28;20037;-75
2021/03/07 01:01:40;;;;;;;10.38;4.85;;;2.20;59.10;;;;;;5043697;28;20031;-75
2021/03/07 01:04:07;;;;;;;8.02;4.70;;;2.20;59.10;;;;;;5042681;28;20047;-77
2021/03/07 01:06:33;;;;;;;8.38;4.88;;;2.30;59.00;;;;;;5046268;28;20132;-74
2021/03/07 01:09:00;;;;;;;9.70;5.00;;;2.30;58.70;;;;;;5047788;28;20052;-75
2021/03/07 01:11:26;;;;;;;8.57;5.18;;;2.30;59.00;;;;;;5047672;28;20029;-75
2021/03/07 01:13:52;;;;;;;9.23;5.07;;;2.30;59.20;;;;;;5047914;28;20041;-75
2021/03/07 01:16:20;;;;;;;7.88;4.60;;;2.30;58.80;;;;;;5050008;28;20029;-75
2021/03/07 01:18:45;;;;;;;8.65;4.45;;;2.30;59.10;;;;;;5048063;28;20029;-76
2021/03/07 01:21:11;;;;;;;8.63;5.20;;;2.30;59.30;;;;;;5044643;28;20041;-76
2021/03/07 01:23:38;;;;;;;8.65;5.00;;;2.20;59.50;;;;;;5049318;28;20040;-76
2021/03/07 01:26:03;;;;;;;8.30;4.57;;;2.10;59.90;;;;;;5049544;28;20063;-75
2021/03/07 01:28:30;;;;;;;8.75;5.00;;;2.10;60.10;;;;;;5048280;28;20059;-75
2021/03/07 01:30:55;;;;;;;8.20;5.07;;;2.10;60.40;;;;;;5047363;28;20500;-75
2021/03/07 01:33:21;;;;;;;10.10;5.10;;;2.00;60.70;;;;;;5048996;28;20045;-75
2021/03/07 01:35:47;;;;;;;9.43;4.88;;;2.00;61.40;;;;;;5048837;28;20048;-75
2021/03/07 01:38:14;;;;;;;11.75;5.50;;;2.00;61.30;;;;;;5041510;28;20486;-76
2021/03/07 01:40:49;;;;;;;18.23;6.35;;;2.00;61.20;;;;;;5047856;28;20121;-75
2021/03/07 01:43:16;;;;;;;10.40;4.95;;;1.90;61.40;;;;;;5044658;28;20517;-75
2021/03/07 01:45:42;;;;;;;7.93;4.72;;;1.90;61.50;;;;;;5047792;28;20040;-76
2021/03/07 01:48:10;;;;;;;7.70;4.78;;;1.90;61.60;;;;;;5047796;28;20068;-75
2021/03/07 01:50:41;;;;;;;9.30;5.05;;;1.80;62.10;;;;;;5044698;28;20418;-75
2021/03/07 01:53:07;;;;;;;8.73;4.95;;;1.80;62.30;;;;;;5047778;28;21380;-76
2021/03/07 01:55:39;;;;;;;7.63;4.22;;;1.80;62.50;;;;;;5047806;28;20036;-74
2021/03/07 01:58:05;;;;;;;8.85;4.82;;;1.80;62.70;;;;;;5036309;28;20379;-74
2021/03/07 02:00:31;;;;;;;8.38;4.45;;;1.80;62.30;;;;;;5044297;28;20033;-79
2021/03/07 02:02:57;;;;;;;11.10;5.45;;;1.80;62.70;;;;;;5040734;28;20119;-75
2021/03/07 02:05:23;;;;;;;9.32;5.25;;;1.80;63.20;;;;;;5038104;28;20116;-75
2021/03/07 02:07:49;;;;;;;7.70;4.68;;;1.80;63.40;;;;;;5038285;28;20045;-75
2021/03/07 02:10:32;;;;;;;7.75;4.78;;;1.80;63.90;;;;;;5043455;28;20040;-75
2021/03/07 02:13:37;;;;;;;9.38;5.20;;;1.80;63.90;;;;;;5032111;28;20059;-75
2021/03/07 02:16:07;;;;;;;8.02;4.55;;;1.70;64.30;;;;;;4990577;28;20049;-75
2021/03/07 02:18:36;;;;;;;9.45;4.78;;;1.80;63.70;;;;;;5001074;28;20034;-74
2021/03/07 02:21:06;;;;;;;8.75;4.70;;;1.70;63.40;;;;;;5020101;28;20120;-75
2021/03/07 02:23:39;;;;;;;9.20;4.85;;;1.70;63.90;;;;;;5048559;28;20567;-75
2021/03/07 02:26:05;;;;;;;10.18;5.32;;;1.60;64.20;;;;;;5048655;28;20914;-74
2021/03/07 02:28:31;;;;;;;7.78;4.75;;;1.60;64.60;;;;;;5044463;28;20033;-74
2021/03/07 02:30:57;;;;;;;9.32;4.93;;;1.60;64.70;;;;;;5048533;28;20387;-74
2021/03/07 02:33:29;;;;;;;8.35;4.45;;;1.60;65.00;;;;;;5036635;28;20124;-76
2021/03/07 02:36:26;;;;;;;9.80;4.70;;;1.50;65.50;;;;;;5048236;28;20037;-75
2021/03/07 02:38:53;;;;;;;10.60;5.35;;;1.50;65.60;;;;;;5026247;28;20048;-75
2021/03/07 02:41:21;;;;;;;9.38;4.93;;;1.50;65.80;;;;;;5047303;28;20037;-75
2021/03/07 02:43:52;;;;;;;8.60;4.78;;;1.50;66.10;;;;;;5044838;28;20479;-74
2021/03/07 02:46:19;;;;;;;11.18;5.80;;;1.50;66.20;;;;;;5034435;28;20043;-74
2021/03/07 02:48:52;;;;;;;9.20;5.55;;;1.50;67.20;;;;;;5035927;28;20048;-74
2021/03/07 02:51:18;;;;;;;9.80;5.35;;;1.40;67.60;;;;;;5045635;28;20523;-77
2021/03/07 02:53:44;;;;;;;10.40;5.53;;;1.40;68.10;;;;;;5048023;28;20049;-75
2021/03/07 02:56:16;;;;;;;10.40;5.50;;;1.40;68.80;;;;;;5045799;28;20095;-75
2021/03/07 02:58:45;;;;;;;10.07;6.30;;;1.30;69.60;;;;;;5047245;28;20041;-75
2021/03/07 03:01:16;;;;;;;10.07;5.53;;;1.30;70.20;;;;;;5046792;28;20103;-74
2021/03/07 03:03:42;;;;;;;;;;;1.20;69.80;;;;;;5047899;28;20720;-75
2021/03/07 03:06:15;;;;;;;8.65;4.97;;;1.30;69.20;;;;;;5047673;28;20380;-74
2021/03/07 03:08:49;;;;;;;9.98;5.22;;;1.20;70.50;;;;;;5043029;28;20025;-76
2021/03/07 03:11:19;;;;;;;8.90;5.45;;;1.20;71.00;;;;;;5046981;28;20529;-74
2021/03/07 03:13:49;;;;;;;8.77;4.88;;;1.20;71.10;;;;;;5041754;28;20041;-74
2021/03/07 03:16:16;;;;;;;9.10;4.95;;;1.20;71.40;;;;;;5043240;28;20039;-74
2021/03/07 03:18:44;;;;;;;8.82;5.40;;;1.20;71.80;;;;;;5044641;28;20040;-73
2021/03/07 03:21:12;;;;;;;9.82;5.38;;;1.20;71.70;;;;;;5043395;28;20040;-74
2021/03/07 03:23:39;;;;;;;9.82;5.82;;;1.20;72.20;;;;;;5050456;28;20131;-74
2021/03/07 03:26:10;;;;;;;8.70;4.90;;;1.20;72.20;;;;;;5055640;28;20036;-75
2021/03/07 03:28:38;;;;;;;;;;;1.20;71.90;;;;;;5024548;28;20033;-75
2021/03/07 03:31:04;;;;;;;9.68;4.75;;;1.20;72.10;;;;;;5048824;28;19917;-75
2021/03/07 03:33:31;;;;;;;9.55;5.15;;;1.20;72.60;;;;;;5045834;28;20048;-73
2021/03/07 03:35:57;;;;;;;9.45;5.20;;;1.20;72.60;;;;;;5050383;28;20048;-74
2021/03/07 03:38:31;;;;;;;7.75;4.90;;;1.20;72.70;;;;;;5046635;28;20041;-74
2021/03/07 03:40:58;;;;;;;8.95;4.93;;;1.10;72.80;;;;;;5048960;28;20037;-74
2021/03/07 03:43:25;;;;;;;7.55;5.10;;;1.10;73.20;;;;;;5042327;28;20152;-74
2021/03/07 03:45:58;;;;;;;8.35;5.03;;;1.10;73.80;;;;;;5045958;28;20032;-76
2021/03/07 03:48:28;;;;;;;9.10;4.70;;;1.10;74.10;;;;;;5047305;28;20083;-74
2021/03/07 03:50:57;;;;;;;8.40;4.75;;;1.10;74.00;;;;;;5045254;28;20418;-75
2021/03/07 03:53:23;;;;;;;12.35;4.95;;;1.10;73.20;;;;;;5046812;28;20098;-74
2021/03/07 03:55:52;;;;;;;12.02;4.82;;;1.10;73.60;;;;;;5048098;28;20506;-75
2021/03/07 03:58:22;;;;;;;8.20;5.47;;;1.10;74.30;;;;;;5050955;28;20119;-75
2021/03/07 04:00:53;;;;;;;8.95;5.10;;;1.20;74.80;;;;;;5043341;28;20060;-74
2021/03/07 04:03:19;;;;;;;;;;;1.10;74.80;;;;;;5045463;28;20605;-75
2021/03/07 04:05:46;;;;;;;10.48;5.05;;;1.10;75.90;;;;;;5046436;28;20054;-73
2021/03/07 04:08:16;;;;;;;9.52;4.88;;;1.00;75.90;;;;;;5043673;28;20070;-75
2021/03/07 04:10:44;;;;;;;11.13;5.20;;;1.00;76.20;;;;;;5048178;28;20041;-73
2021/03/07 04:13:16;;;;;;;10.73;4.75;;;1.00;76.20;;;;;;5046094;28;20037;-74
2021/03/07 04:15:43;;;;;;;7.90;5.10;;;1.00;76.60;;;;;;5051797;28;20525;-74
2021/03/07 04:18:13;;;;;;;9.05;5.15;;;0.90;77.40;;;;;;5045605;28;20037;-76
2021/03/07 04:20:40;;;;;;;8.88;4.82;;;0.80;78.00;;;;;;5047230;28;20033;-75
2021/03/07 04:23:06;;;;;;;9.52;5.15;;;0.80;78.80;;;;;;5049770;28;20517;-74
2021/03/07 04:25:31;;;;;;;10.27;5.20;;;0.80;79.60;;;;;;5054760;28;20040;-75
2021/03/07 04:27:57;;;;;;;7.45;4.72;;;0.80;79.60;;;;;;5044246;28;20040;-74
2021/03/07 04:30:23;;;;;;;9.35;5.40;;;0.70;79.60;;;;;;5051042;28;20449;-75
2021/03/07 04:32:51;;;;;;;8.03;4.77;;;0.70;79.90;;;;;;5053842;28;20041;-75
2021/03/07 04:35:18;;;;;;;10.43;4.70;;;0.70;80.30;;;;;;5053297;28;20564;-75
2021/03/07 04:37:44;;;;;;;10.63;5.10;;;0.70;80.40;;;;;;5055010;28;20037;-74
2021/03/07 04:40:10;;;;;;;8.38;5.03;;;0.70;79.20;;;;;;5048144;28;20648;-76
2021/03/07 04:42:39;;;;;;;8.52;4.88;;;0.70;79.60;;;;;;5045272;28;20045;-75
2021/03/07 04:45:06;;;;;;;10.98;4.70;;;0.80;79.70;;;;;;5045789;28;20492;-75
2021/03/07 04:47:32;;;;;;;10.38;4.90;;;0.80;79.30;;;;;;5049306;28;20116;-73
2021/03/07 04:49:57;;;;;;;9.65;5.07;;;0.80;79.60;;;;;;5037025;28;20589;-74
2021/03/07 04:52:23;;;;;;;12.98;5.70;;;0.80;79.90;;;;;;5044723;28;20312;-76
2021/03/07 04:54:49;;;;;;;8.45;4.95;;;0.80;80.50;;;;;;5043526;28;20120;-75
2021/03/07 04:57:16;;;;;;;9.35;5.40;;;0.70;81.60;;;;;;5037928;28;20116;-76
2021/03/07 04:59:42;;;;;;;10.98;5.72;;;0.70;81.50;;;;;;5043730;28;20044;-75
2021/03/07 05:02:08;;;;;;;11.18;5.65;;;0.70;82.30;;;;;;5049961;28;20036;-75
2021/03/07 05:04:34;;;;;;;8.93;5.25;;;0.70;82.10;;;;;;5049710;28;20037;-75
2021/03/07 05:07:01;;;;;;;10.75;6.07;;;0.60;82.50;;;;;;5043579;28;20052;-75
2021/03/07 05:09:27;;;;;;;9.95;5.72;;;0.50;83.70;;;;;;5043710;28;20083;-74
2021/03/07 05:11:53;;;;;;;8.90;5.10;;;0.50;83.70;;;;;;5051640;28;20120;-74
2021/03/07 05:14:19;;;;;;;11.05;5.88;;;0.40;84.20;;;;;;5045289;28;20037;-75
2021/03/07 05:16:45;;;;;;;10.35;6.03;;;0.40;85.00;;;;;;5034139;28;20044;-77
2021/03/07 05:19:10;;;;;;;11.40;6.35;;;0.40;85.60;;;;;;5034430;28;20037;-74
2021/03/07 05:21:39;;;;;;;11.07;6.25;;;0.40;86.50;;;;;;5043026;28;20041;-74
2021/03/07 05:24:05;;;;;;;10.03;6.00;;;0.30;86.90;;;;;;5040515;28;20055;-74
2021/03/07 05:26:31;;;;;;;9.83;5.80;;;0.30;87.50;;;;;;5041302;28;20033;-74
2021/03/07 05:28:57;;;;;;;11.40;6.18;;;0.20;88.60;;;;;;5028842;28;20099;-74
2021/03/07 05:31:23;;;;;;;10.27;5.97;;;0.20;89.50;;;;;;5044822;28;20037;-74
2021/03/07 05:33:49;;;;;;;12.50;7.67;;;0.10;89.90;;;;;;5048262;28;20529;-75
2021/03/07 05:36:16;;;;;;;11.48;6.53;;;0.10;90.00;;;;;;5040707;28;20041;-74
2021/03/07 05:38:42;;;;;;;11.32;6.13;;;0.00;90.30;;;;;;5048024;28;20040;-74
2021/03/07 05:41:10;;;;;;;10.77;5.63;;;0.00;90.30;;;;;;5044899;28;20453;-73
2021/03/07 05:43:37;;;;;;;11.32;6.07;;;0.00;90.50;;;;;;5039046;28;20032;-73
2021/03/07 05:46:03;;;;;;;13.43;6.60;;;-0.10;90.50;;;;;;5038536;28;20056;-74
2021/03/07 05:48:29;;;;;;;11.18;5.82;;;-0.10;90.60;;;;;;5042537;28;20033;-73
2021/03/07 05:50:55;;;;;;;14.07;7.53;;;-0.10;90.40;;;;;;5041790;28;20033;-74
2021/03/07 05:53:21;;;;;;;13.27;6.60;;;-0.10;90.60;;;;;;5043503;28;20453;-73
2021/03/07 05:55:48;;;;;;;13.43;6.90;;;-0.10;90.80;;;;;;5044033;28;20215;-75
2021/03/07 05:58:15;;;;;;;18.37;8.40;;;-0.10;90.80;;;;;;5035927;28;20124;-73
2021/03/07 06:00:42;;;;;;;13.80;7.00;;;0.00;90.90;;;;;;5035460;28;20055;-74
2021/03/07 06:03:08;;;;;;;15.38;6.80;;;0.00;90.70;;;;;;5042709;28;20123;-74
2021/03/07 06:05:34;;;;;;;10.87;6.23;;;0.00;90.70;;;;;;5029530;28;20037;-74
2021/03/07 06:08:01;;;;;;;14.97;7.07;;;0.00;90.60;;;;;;5039527;28;20044;-74
2021/03/07 06:10:29;;;;;;;12.50;6.67;;;0.00;90.80;;;;;;5040727;28;20502;-74
2021/03/07 06:13:05;;;;;;;13.38;6.53;;;0.00;91.00;;;;;;5045127;28;20041;-75
2021/03/07 06:15:31;;;;;;;18.30;7.57;;;-0.10;91.20;;;;;;5034155;28;20052;-74
2021/03/07 06:17:57;;;;;;;12.40;7.03;;;-0.10;91.40;;;;;;5041510;28;20417;-74
2021/03/07 06:20:29;;;;;;;12.53;7.00;;;-0.20;91.70;;;;;;5043871;28;20044;-73
2021/03/07 06:22:59;;;;;;;16.03;6.77;;;-0.20;91.80;;;;;;5042646;28;20132;-75
2021/03/07 06:25:25;;;;;;;10.43;6.17;;;-0.20;92.10;;;;;;5050886;28;20108;-76
2021/03/07 06:27:52;;;;;;;13.77;6.90;;;-0.20;91.80;;;;;;5043121;28;20040;-75
2021/03/07 06:30:25;;;;;;;9.80;6.00;;;-0.10;91.40;;;;;;5045615;28;20112;-74
2021/03/07 06:32:59;;;;;;;14.20;7.63;;;-0.10;91.90;;;;;;5039953;28;20033;-74
2021/03/07 06:35:34;;;;;;;12.17;6.57;;;-0.10;92.10;;;;;;5037875;28;20437;-74
2021/03/07 06:38:07;;;;;;;11.87;6.90;;;-0.10;91.60;;;;;;5042609;28;20051;-74
2021/03/07 06:40:42;;;;;;;14.03;7.43;;;-0.10;91.40;;;;;;5045007;28;21323;-74
2021/03/07 06:43:22;;;;;;;11.50;6.50;;;-0.10;91.20;;;;;;5046255;28;20037;-74
2021/03/07 06:45:49;;;;;;;12.02;6.47;;;-0.10;91.70;;;;;;5036948;28;20115;-73
2021/03/07 06:48:16;;;;;;;15.73;7.37;;;0.00;91.60;;;;;;5050091;28;20033;-74
2021/03/07 06:50:58;;;;;;;14.93;6.90;;;0.00;91.30;;;;;;5031758;28;20126;-73
2021/03/07 06:53:35;;;;;;;14.10;6.60;;;0.00;91.40;;;;;;5050165;28;20403;-75
2021/03/07 06:56:01;;;;;;;12.60;6.68;;;0.10;91.20;;;;;;5045796;28;20051;-76
2021/03/07 06:58:27;;;;;;;9.97;6.03;;;0.10;91.10;;;;;;5045630;28;20403;-74
2021/03/07 07:00:53;;;;;;;12.23;6.40;;;0.10;90.70;;;;;;5045139;28;20041;-74
2021/03/07 07:03:20;;;;;;;11.10;5.60;;;0.10;90.90;;;;;;5047089;28;20037;-75
2021/03/07 07:05:51;;;;;;;10.03;5.90;;;0.20;90.80;;;;;;5042929;28;20040;-74
2021/03/07 07:08:38;;;;;;;11.63;6.18;;;0.30;90.00;;;;;;5047657;28;20120;-75
2021/03/07 07:11:06;;;;;;;15.80;7.57;;;0.40;89.30;;;;;;5041806;28;20021;-75
2021/03/07 07:13:46;;;;;;;12.00;6.53;;;3.20;90.30;;;;;;5044088;28;20083;-75
2021/03/07 07:16:14;;;;;;;11.67;6.07;;;0.40;89.40;;;;;;5048604;28;20041;-75
2021/03/07 07:18:44;;;;;;;12.30;5.77;;;0.50;87.90;;;;;;5051866;28;20120;-74
2021/03/07 07:21:14;;;;;;;12.90;5.25;;;0.80;85.30;;;;;;5047246;28;20052;-74
2021/03/07 07:23:40;;;;;;;9.40;4.95;;;0.80;85.80;;;;;;5044413;28;20033;-74
2021/03/07 07:26:07;;;;;;;10.80;4.83;;;0.90;84.20;;;;;;5049751;28;20037;-75
2021/03/07 07:28:36;;;;;;;9.43;5.00;;;1.00;83.20;;;;;;5040899;28;20039;-74
2021/03/07 07:31:07;;;;;;;9.35;5.63;;;1.20;81.30;;;;;;5038514;28;20017;-74
2021/03/07 07:33:44;;;;;;;9.07;5.00;;;1.20;81.70;;;;;;5046810;28;20025;-76
2021/03/07 07:36:13;;;;;;;9.48;5.32;;;1.30;80.90;;;;;;5049988;28;20037;-76
2021/03/07 07:38:39;;;;;;;8.57;5.13;;;1.40;80.60;;;;;;5045616;28;20040;-75
2021/03/07 07:41:26;;;;;;;9.27;5.05;;;1.40;80.20;;;;;;5046138;28;20506;-75
2021/03/07 07:43:52;;;;;;;10.95;5.45;;;1.40;80.20;;;;;;5050304;28;20045;-75
2021/03/07 07:46:19;;;;;;;9.30;5.40;;;1.50;80.30;;;;;;5052869;28;20132;-75
2021/03/07 07:48:45;;;;;;;9.77;5.57;;;1.50;79.90;;;;;;5048320;28;20102;-73
2021/03/07 07:51:38;;;;;;;9.27;5.57;;;1.50;80.20;;;;;;5049153;28;20045;-75
2021/03/07 07:54:06;;;;;;;9.27;5.72;;;1.50;79.60;;;;;;5043633;28;20045;-75
2021/03/07 07:56:42;;;;;;;9.00;4.70;;;1.70;78.80;;;;;;5040471;28;20036;-74
2021/03/07 07:59:10;;;;;;;10.80;5.00;;;1.90;76.10;;;;;;5048013;28;20063;-75
2021/03/07 08:01:52;;;;;;;10.25;5.97;;;2.10;75.20;;;;;;5045430;28;20125;-75
2021/03/07 08:04:26;;;;;;;12.05;5.88;;;2.50;79.00;;;;;;5038966;28;20033;-74
2021/03/07 08:06:53;;;;;;;10.90;5.65;;;;;;;;;;5045038;28;20039;-74
2021/03/07 08:09:38;;;;;;;9.50;5.32;;;2.70;70.10;;;;;;5058794;28;20072;-75
2021/03/07 08:12:43;;;;;;;10.05;5.68;;;2.80;71.90;;;;;;5041469;28;20034;-74
2021/03/07 08:15:24;;;;;;;10.65;5.70;;;2.70;70.00;;;;;;5049644;28;20083;-74
2021/03/07 08:18:00;;;;;;;8.63;4.88;;;3.00;67.50;;;;;;5053754;28;20029;-74
2021/03/07 08:20:38;;;;;;;11.55;5.60;;;;;;;;;;5048654;28;20043;-74
2021/03/07 08:23:12;;;;;;;9.57;5.43;;;3.40;65.80;;;;;;5044406;28;20063;-75
2021/03/07 08:25:50;;;;;;;9.75;5.43;;;3.50;64.60;;;;;;5045145;28;20185;-75
2021/03/07 08:28:31;;;;;;;9.98;5.45;;;3.60;65.00;;;;;;5038672;28;20118;-74
2021/03/07 08:31:03;;;;;;;8.48;5.05;;;4.00;61.30;;;;;;5046983;28;20028;-74
2021/03/07 08:33:35;;;;;;;10.40;5.45;;;3.90;61.70;;;;;;5052019;28;20537;-75
2021/03/07 08:36:16;;;;;;;11.18;4.80;;;4.10;60.00;;;;;;5054108;28;20025;-75
2021/03/07 08:38:54;;;;;;;8.02;4.90;;;4.10;60.40;;;;;;5048462;28;20055;-73
2021/03/07 08:41:22;;;;;;;8.00;5.20;;;4.10;60.60;;;;;;5051641;28;20116;-74
2021/03/07 08:43:49;;;;;;;9.07;4.60;;;4.20;60.10;;;;;;5043830;28;20121;-75
2021/03/07 08:46:18;;;;;;;10.45;4.80;;;4.30;59.50;;;;;;5048625;28;20064;-75
2021/03/07 08:48:47;;;;;;;8.10;5.10;;;4.40;58.60;;;;;;5038953;28;21402;-74
2021/03/07 08:51:14;;;;;;;7.70;4.78;;;4.60;57.80;;;;;;5045805;28;20141;-76
2021/03/07 08:53:43;;;;;;;7.90;4.93;;;4.80;57.10;;;;;;5051188;28;20098;-76
2021/03/07 08:56:10;;;;;;;9.75;5.70;;;4.90;56.00;;;;;;5044369;28;20044;-75
2021/03/07 08:58:38;;;;;;;9.65;5.45;;;4.80;56.50;;;;;;5039829;28;20021;-75
2021/03/07 09:01:04;;;;;;;10.13;5.50;;;4.90;56.90;;;;;;5040546;28;20036;-74
2021/03/07 09:03:30;;;;;;;8.15;5.25;;;5.00;55.90;;;;;;5045953;28;20048;-74
2021/03/07 09:05:57;;;;;;;9.25;5.18;;;5.00;56.80;;;;;;5045334;28;20021;-76
2021/03/07 09:08:27;;;;;;;7.80;5.10;;;5.40;55.30;;;;;;5052335;28;20509;-75
2021/03/07 09:10:55;;;;;;;8.23;5.03;;;5.40;55.00;;;;;;5046888;28;20498;-74
2021/03/07 09:13:24;;;;;;;8.52;5.20;;;5.30;54.80;;;;;;5042879;28;20078;-75
2021/03/07 09:15:57;;;;;;;8.40;4.97;;;5.40;55.40;;;;;;5048078;28;20049;-75
2021/03/07 09:18:26;;;;;;;7.90;5.20;;;5.50;55.10;;;;;;5041732;28;20049;-75
2021/03/07 09:20:57;;;;;;;11.15;5.18;;;5.50;54.90;;;;;;5041107;28;20132;-73
2021/03/07 09:23:30;;;;;;;8.48;5.00;;;5.60;55.00;;;;;;5045039;28;20055;-75
2021/03/07 09:25:57;;;;;;;8.43;5.10;;;5.60;55.00;;;;;;5039756;28;20455;-75
2021/03/07 09:28:48;;;;;;;9.10;5.10;;;5.80;54.00;;;;;;5042021;28;20033;-75
2021/03/07 09:31:22;;;;;;;9.50;5.20;;;5.70;54.30;;;;;;5039756;28;20061;-76
2021/03/07 09:33:50;;;;;;;7.68;5.07;;;6.10;52.90;;;;;;5040611;28;20041;-74
2021/03/07 09:36:17;;;;;;;8.45;4.97;;;6.10;52.40;;;;;;5037662;28;20108;-76
2021/03/07 09:38:43;;;;;;;9.30;4.80;;;;;;;;;;5046654;28;20550;-76
2021/03/07 09:41:12;;;;;;;8.68;5.07;;;6.10;52.70;;;;;;5043469;28;20049;-76
2021/03/07 09:43:38;;;;;;;9.68;5.68;;;6.10;53.30;;;;;;5039997;28;20036;-77
2021/03/07 09:46:06;;;;;;;9.18;5.07;;;6.30;53.10;;;;;;5041250;28;20029;-73
2021/03/07 09:48:36;;;;;;;7.68;4.82;;;6.50;52.60;;;;;;5043289;28;20387;-75
2021/03/07 09:51:10;;;;;;;8.90;5.50;;;6.50;52.30;;;;;;5041645;28;20033;-77
2021/03/07 09:53:38;;;;;;;9.10;5.28;;;6.50;51.40;;;;;;5043518;28;20048;-76
2021/03/07 09:56:05;;;;;;;6.82;4.70;;;6.60;51.90;;;;;;5048464;28;20053;-77
2021/03/07 09:58:38;;;;;;;9.20;5.10;;;6.60;51.30;;;;;;5041488;28;20049;-74
2021/03/07 10:01:05;;;;;;;9.27;5.00;;;6.60;50.90;;;;;;5035117;28;20045;-76
2021/03/07 10:03:33;;;;;;;7.78;5.35;;;6.60;51.10;;;;;;5034301;28;20507;-76
2021/03/07 10:06:10;;;;;;;9.20;5.60;;;6.70;51.90;;;;;;5040688;28;20029;-77
2021/03/07 10:08:38;;;;;;;8.15;5.30;;;6.80;51.40;;;;;;5043259;28;20032;-77
2021/03/07 10:11:22;;;;;;;8.85;5.20;;;6.80;50.40;;;;;;5045703;28;20474;-75
2021/03/07 10:14:02;;;;;;;11.13;5.50;;;6.80;51.20;;;;;;5046508;28;20051;-75
2021/03/07 10:16:31;;;;;;;9.60;5.95;;;6.80;50.60;;;;;;5028984;28;20060;-75
2021/03/07 10:19:07;;;;;;;6.97;4.50;;;6.80;51.00;;;;;;5043671;28;20509;-79
2021/03/07 10:21:34;;;;;;;7.47;5.10;;;7.00;50.70;;;;;;5037263;28;20560;-75
2021/03/07 10:24:11;;;;;;;9.38;5.07;;;7.10;49.70;;;;;;5040250;28;20039;-77
2021/03/07 10:26:39;;;;;;;9.57;5.78;;;6.90;50.10;;;;;;5050710;28;20408;-76
2021/03/07 10:29:19;;;;;;;8.60;5.20;;;7.00;50.60;;;;;;5039461;28;20095;-75
2021/03/07 10:32:32;;;;;;;8.20;5.45;;;7.10;50.10;;;;;;5042333;28;20060;-76
2021/03/07 10:34:57;;;;;;;8.60;5.32;;;7.10;50.40;;;;;;5045565;28;20057;-76
2021/03/07 10:37:33;;;;;;;12.75;6.82;;;7.40;49.40;;;;;;5046957;28;20033;-80
2021/03/07 10:39:59;;;;;;;8.88;5.30;;;7.20;49.30;;;;;;5045783;28;20036;-76
2021/03/07 10:42:33;;;;;;;8.25;4.88;;;7.50;49.20;;;;;;5048303;28;20041;-78
2021/03/07 10:45:23;;;;;;;9.45;5.82;;;7.30;49.10;;;;;;5038117;28;20060;-76
2021/03/07 10:47:59;;;;;;;8.20;5.77;;;7.40;49.20;;;;;;5036250;28;20033;-75
2021/03/07 10:50:25;;;;;;;8.98;5.53;;;7.50;48.80;;;;;;5036910;28;20049;-76
2021/03/07 10:52:52;;;;;;;8.18;5.40;;;7.50;48.90;;;;;;5040590;28;20040;-77
2021/03/07 10:55:18;;;;;;;10.18;6.13;;;7.60;48.80;;;;;;5036293;28;20098;-76
2021/03/07 10:57:44;;;;;;;7.63;5.28;;;7.70;48.40;;;;;;5041818;28;20176;-76
2021/03/07 11:00:10;;;;;;;8.43;5.47;;;7.90;48.10;;;;;;5037736;28;20140;-75
2021/03/07 11:02:36;;;;;;;8.43;5.22;;;7.80;47.30;;;;;;5036601;28;20041;-76
2021/03/07 11:05:03;;;;;;;9.43;5.63;;;7.80;47.50;;;;;;5041004;28;20032;-77
2021/03/07 11:07:32;;;;;;;9.10;5.70;;;7.80;47.30;;;;;;5039503;28;20040;-78
2021/03/07 11:09:57;;;;;;;9.20;5.60;;;7.90;47.70;;;;;;5053587;28;20033;-76
2021/03/07 11:12:23;;;;;;;7.82;5.30;;;8.10;47.20;;;;;;5038473;28;20760;-77
2021/03/07 11:14:49;;;;;;;8.15;5.18;;;8.20;47.00;;;;;;5042462;28;20510;-77
2021/03/07 11:17:17;;;;;;;7.40;4.65;;;8.20;47.40;;;;;;5040281;28;20041;-77
2021/03/07 11:19:43;;;;;;;9.95;5.60;;;8.40;47.10;;;;;;5039191;28;20033;-80
2021/03/07 11:22:08;;;;;;;8.10;5.57;;;8.60;46.80;;;;;;5038799;28;20041;-77
2021/03/07 11:24:34;;;;;;;9.63;5.82;;;8.80;46.50;;;;;;5046324;28;20793;-77
2021/03/07 11:26:59;;;;;;;9.18;5.63;;;8.90;46.30;;;;;;5037322;28;20033;-79
2021/03/07 11:29:25;;;;;;;8.50;5.60;;;8.70;45.70;;;;;;5033593;28;20045;-77
2021/03/07 11:31:51;;;;;;;9.18;5.47;;;8.80;45.80;;;;;;5034641;28;20060;-75
2021/03/07 11:34:17;;;;;;;9.10;5.28;;;8.80;45.40;;;;;;5038740;28;20045;-77
2021/03/07 11:36:43;;;;;;;7.75;5.65;;;9.00;45.30;;;;;;5038445;28;20525;-76
2021/03/07 11:39:09;;;;;;;9.60;5.70;;;8.90;44.30;;;;;;5034887;28;20387;-78
2021/03/07 11:41:35;;;;;;;25.65;16.45;;;9.00;45.40;;;;;;5041876;28;20040;-75
2021/03/07 11:44:01;;;;;;;10.50;6.18;;;8.70;45.70;;;;;;5047813;28;20037;-74
2021/03/07 11:46:27;;;;;;;8.48;5.45;;;8.90;45.50;;;;;;5039670;28;20813;-77
2021/03/07 11:48:53;;;;;;;8.18;5.72;;;10.20;46.20;;;;;;5037614;28;20163;-76
2021/03/07 11:51:19;;;;;;;7.03;5.20;;;9.00;44.30;;;;;;5038257;28;20041;-77
2021/03/07 11:53:45;;;;;;;6.70;4.95;;;9.00;43.60;;;;;;5043591;28;20040;-75
2021/03/07 11:56:11;;;;;;;8.70;5.00;;;8.90;44.00;;;;;;5048220;28;20668;-75
2021/03/07 11:58:37;;;;;;;8.35;5.45;;;9.00;43.40;;;;;;5046053;28;20037;-76
2021/03/07 12:01:03;;;;;;;7.57;5.15;;;9.20;44.10;;;;;;5043248;28;20045;-76
2021/03/07 12:03:29;;;;;;;7.57;5.25;;;9.40;43.90;;;;;;5047131;28;20048;-76
2021/03/07 12:05:55;;;;;;;9.25;5.75;;;9.50;43.30;;;;;;5046054;28;20033;-77
2021/03/07 12:08:21;;;;;;;7.13;4.80;;;9.50;43.00;;;;;;5030173;28;20041;-78
2021/03/07 12:10:47;;;;;;;6.47;4.50;;;9.50;42.00;;;;;;5034030;28;20406;-75
2021/03/07 12:13:13;;;;;;;8.18;5.20;;;9.70;41.80;;;;;;5036824;28;20032;-77
2021/03/07 12:15:39;;;;;;;6.43;4.82;;;9.50;41.60;;;;;;5043954;28;20079;-77
2021/03/07 12:18:05;;;;;;;9.13;5.55;;;9.60;41.20;;;;;;5036428;28;20045;-76
2021/03/07 12:20:30;;;;;;;7.68;5.00;;;9.60;41.10;;;;;;5046255;28;20044;-78
2021/03/07 12:22:57;;;;;;;9.23;5.13;;;9.50;40.20;;;;;;5041396;28;20037;-75
2021/03/07 12:25:22;;;;;;;8.52;5.38;;;9.60;40.50;;;;;;5040458;28;20702;-77
2021/03/07 12:27:48;;;;;;;8.25;5.13;;;9.70;42.00;;;;;;5038752;28;20041;-76
2021/03/07 12:30:15;;;;;;;6.63;4.93;;;9.70;41.50;;;;;;5041452;28;20052;-77
2021/03/07 12:32:41;;;;;;;8.95;5.07;;;9.90;40.80;;;;;;5040425;28;20029;-75
2021/03/07 12:35:07;;;;;;;7.63;5.30;;;10.10;40.90;;;;;;5037108;28;20048;-75
2021/03/07 12:37:33;;;;;;;7.90;5.38;;;10.10;40.40;;;;;;5037821;28;20037;-77
2021/03/07 12:39:59;;;;;;;7.32;5.22;;;10.10;39.90;;;;;;5040462;28;20520;-76
2021/03/07 12:42:25;;;;;;;8.95;5.57;;;11.00;40.90;;;;;;5046333;28;20055;-75
2021/03/07 12:44:53;;;;;;;28.20;17.00;;;10.10;40.50;;;;;;5031245;28;20049;-74
2021/03/07 12:47:19;;;;;;;7.72;5.53;;;10.30;40.40;;;;;;5043478;28;20025;-76
2021/03/07 12:49:44;;;;;;;8.52;5.97;;;10.30;40.50;;;;;;5041314;28;20390;-77
2021/03/07 12:52:10;;;;;;;9.10;5.78;;;10.10;40.50;;;;;;5043146;28;20044;-76
2021/03/07 12:54:36;;;;;;;8.70;5.40;;;10.30;40.40;;;;;;5043119;28;20517;-80
2021/03/07 12:57:03;;;;;;;9.30;5.35;;;10.50;40.70;;;;;;5052840;28;20048;-76
2021/03/07 12:59:29;;;;;;;8.63;5.80;;;10.60;40.00;;;;;;5049502;28;20036;-77
2021/03/07 13:01:54;;;;;;;7.88;5.57;;;10.50;39.40;;;;;;5049209;28;20032;-76
2021/03/07 13:04:20;;;;;;;9.52;6.18;;;10.20;39.80;;;;;;5046875;28;20045;-77